Savage Perseverance — WDG9117 — position and weather

sailwx.info

Track history (hours):
 
Tides and Currents Weather Stations Pressure Air Temp Water Temp Dewpoint Dewpoint Depression Visibility Wind Speed Wind Dir Waves Ship Positions

Savage Perseverance

Owner: Savage Inland Marine, Gibson, LA. More information available from US FCC via Universal Licensing System and Coast Guard Vessel Documentation Center.

Last reported at 2018-May-30 14:13 UTC. Time now 2018-Jun-20 07:21 UTC.
Position N 32°40' W 091°08'.
Warning: this ship's position is 20 days out of date.

Length 26 m; draft 3.3 m.

Type: Towing. MMSI: 367584490.

Date/timePositionNaut miles runAvg speedWind from/ knotsBaromVisibWave heightAir tempDewpointWater temp
2018-May-30 14:13N 32°40' W 091°08'3 5.7
2018-May-30 13:42N 32°37' W 091°09'1 6.1
2018-May-30 13:30N 32°36' W 091°08'3 5.8
2018-May-30 12:59N 32°34' W 091°06'3 5.7
2018-May-30 12:30N 32°31' W 091°06'3 5.5
2018-May-30 12:00N 32°28' W 091°06'3 5.9
2018-May-30 11:30N 32°27' W 091°04'3 5.8
2018-May-30 11:00N 32°25' W 091°00'2 5.0
2018-May-30 10:30N 32°23' W 090°60'2 4.5
2018-May-30 10:00N 32°21' W 090°58'3 5.9
2018-May-30 09:30N 32°20' W 090°55'2 4.2
2018-May-30 09:00N 32°18' W 090°55'3 5.3
2018-May-30 08:30N 32°16' W 090°57'3 5.6
2018-May-30 08:00N 32°14' W 090°59'3 6.3
2018-May-30 07:30N 32°11' W 090°60'3 5.7
2018-May-30 07:00N 32°08' W 091°00'2 4.8
2018-May-30 06:30N 32°07' W 091°03'3 5.7
2018-May-30 06:00N 32°07' W 091°06'3 5.4
2018-May-30 05:30N 32°05' W 091°05'3 5.5
2018-May-30 04:58N 32°02' W 091°04'7 5.7
2018-May-30 03:46N 31°59' W 091°11'  
Track history (hours):
 
Tides and Currents Weather Stations Pressure Air Temp Water Temp Dewpoint Dewpoint Depression Visibility Wind Speed Wind Dir Waves Ship Positions

Savage Perseverance

Owner: Savage Inland Marine, Gibson, LA. More information available from US FCC via Universal Licensing System and Coast Guard Vessel Documentation Center.

Last reported at 2018-May-30 14:13 UTC. Time now 2018-Jun-20 07:21 UTC.
Position N 32°40' W 091°08'.
Warning: this ship's position is 20 days out of date.

Length 26 m; draft 3.3 m.

Type: Towing. MMSI: 367584490.

Date/timePositionNaut miles runAvg speedWind from/ knotsBaromVisibWave heightAir tempDewpointWater temp
2018-May-30 14:13N 32°40' W 091°08'3 5.7
2018-May-30 13:42N 32°37' W 091°09'1 6.1
2018-May-30 13:30N 32°36' W 091°08'3 5.8
2018-May-30 12:59N 32°34' W 091°06'3 5.7
2018-May-30 12:30N 32°31' W 091°06'3 5.5
2018-May-30 12:00N 32°28' W 091°06'3 5.9
2018-May-30 11:30N 32°27' W 091°04'3 5.8
2018-May-30 11:00N 32°25' W 091°00'2 5.0
2018-May-30 10:30N 32°23' W 090°60'2 4.5
2018-May-30 10:00N 32°21' W 090°58'3 5.9
2018-May-30 09:30N 32°20' W 090°55'2 4.2
2018-May-30 09:00N 32°18' W 090°55'3 5.3
2018-May-30 08:30N 32°16' W 090°57'3 5.6
2018-May-30 08:00N 32°14' W 090°59'3 6.3
2018-May-30 07:30N 32°11' W 090°60'3 5.7
2018-May-30 07:00N 32°08' W 091°00'2 4.8
2018-May-30 06:30N 32°07' W 091°03'3 5.7
2018-May-30 06:00N 32°07' W 091°06'3 5.4
2018-May-30 05:30N 32°05' W 091°05'3 5.5
2018-May-30 04:58N 32°02' W 091°04'7 5.7
2018-May-30 03:46N 31°59' W 091°11'  

Dump ship's entire track history